Time,TemperatureF,DewpointF,PressureIn,WindDirection,WindDirectionDegrees,WindSpeedMPH,WindSpeedGustMPH,Humidity,HourlyPrecipIn,Conditions,Clouds,dailyrainin,SoftwareType,DateUTC
2013-02-10 00:00:00,23.9,18.6,30.21,North,0,2.7,-999.0,80,-99.99,,,0.00,Acu-Link.com,2013-02-10 05:00:00,
2013-02-10 00:16:00,24.1,18.0,30.20,SW,225,1.7,-999.0,77,-99.99,,,0.00,Acu-Link.com,2013-02-10 05:16:00,
2013-02-10 00:31:00,23.4,17.6,30.20,West,270,2.7,-999.0,78,-99.99,,,0.00,Acu-Link.com,2013-02-10 05:31:00,
2013-02-10 00:46:00,23.5,17.7,30.20,SE,135,2.2,-999.0,78,-99.99,,,0.00,Acu-Link.com,2013-02-10 05:46:00,
2013-02-10 01:01:00,23.9,18.1,30.20,NW,315,3.7,-999.0,78,-99.99,,,0.00,Acu-Link.com,2013-02-10 06:01:00,
2013-02-10 01:16:00,24.3,18.1,30.18,SE,135,2.7,-999.0,77,-99.99,,,0.00,Acu-Link.com,2013-02-10 06:16:00,
2013-02-10 01:32:00,23.7,17.6,30.18,SE,135,2.2,-999.0,77,-99.99,,,0.00,Acu-Link.com,2013-02-10 06:32:00,
2013-02-10 01:47:00,23.7,17.6,30.18,ENE,67,1.7,-999.0,77,-99.99,,,0.00,Acu-Link.com,2013-02-10 06:47:00,
2013-02-10 02:02:00,23.5,17.7,30.18,ENE,67,2.2,-999.0,78,-99.99,,,0.00,Acu-Link.com,2013-02-10 07:02:00,
2013-02-10 02:17:00,23.7,17.6,30.17,NW,315,1.7,-999.0,77,-99.99,,,0.00,Acu-Link.com,2013-02-10 07:17:00,
2013-02-10 02:32:00,23.7,17.6,30.17,NNE,22,0.0,-999.0,77,-99.99,,,0.00,Acu-Link.com,2013-02-10 07:32:00,
2013-02-10 02:48:00,23.4,17.3,30.17,ENE,67,5.3,-999.0,77,-99.99,,,0.00,Acu-Link.com,2013-02-10 07:48:00,
2013-02-10 03:03:00,23.5,17.4,30.16,ENE,67,1.1,-999.0,77,-99.99,,,0.00,Acu-Link.com,2013-02-10 08:03:00,
2013-02-10 03:18:00,23.7,17.3,30.15,NW,315,2.2,-999.0,76,-99.99,,,0.00,Acu-Link.com,2013-02-10 08:18:00,
2013-02-10 03:33:00,23.7,17.3,30.16,West,270,2.2,-999.0,76,-99.99,,,0.00,Acu-Link.com,2013-02-10 08:33:00,
2013-02-10 03:48:00,23.5,17.4,30.14,NW,315,3.7,-999.0,77,-99.99,,,0.00,Acu-Link.com,2013-02-10 08:48:00,
2013-02-10 04:19:00,23.5,17.4,30.14,NW,315,3.2,-999.0,77,-99.99,,,0.00,Acu-Link.com,2013-02-10 09:19:00,
2013-02-10 04:34:00,22.8,17.3,30.15,North,0,2.7,-999.0,79,-99.99,,,0.00,Acu-Link.com,2013-02-10 09:34:00,
2013-02-10 04:49:00,23.2,17.4,30.14,ESE,112,3.7,-999.0,78,-99.99,,,0.00,Acu-Link.com,2013-02-10 09:49:00,
2013-02-10 05:04:00,23.5,17.7,30.15,North,0,0.0,-999.0,78,-99.99,,,0.00,Acu-Link.com,2013-02-10 10:04:00,
2013-02-10 05:19:00,23.7,17.6,30.15,NE,45,2.7,-999.0,77,-99.99,,,0.00,Acu-Link.com,2013-02-10 10:19:00,
2013-02-10 05:35:00,23.5,17.7,30.15,NNE,22,1.1,-999.0,78,-99.99,,,0.00,Acu-Link.com,2013-02-10 10:35:00,
2013-02-10 05:50:00,23.4,17.6,30.15,West,270,2.7,-999.0,78,-99.99,,,0.00,Acu-Link.com,2013-02-10 10:50:00,
2013-02-10 06:05:00,23.7,17.9,30.14,NNW,337,1.7,-999.0,78,-99.99,,,0.00,Acu-Link.com,2013-02-10 11:05:00,
2013-02-10 06:20:00,23.9,17.8,30.15,North,0,2.7,-999.0,77,-99.99,,,0.00,Acu-Link.com,2013-02-10 11:20:00,
2013-02-10 06:35:00,23.7,17.9,30.14,ENE,67,2.7,-999.0,78,-99.99,,,0.00,Acu-Link.com,2013-02-10 11:35:00,
2013-02-10 06:51:00,23.2,17.4,30.13,West,270,1.7,-999.0,78,-99.99,,,0.00,Acu-Link.com,2013-02-10 11:51:00,
2013-02-10 07:06:00,22.6,17.4,30.14,North,0,2.2,-999.0,80,-99.99,,,0.00,Acu-Link.com,2013-02-10 12:06:00,
2013-02-10 07:21:00,22.6,17.7,30.13,NE,45,2.7,-999.0,81,-99.99,,,0.00,Acu-Link.com,2013-02-10 12:21:00,
2013-02-10 07:36:00,23.0,17.8,30.14,NNE,22,2.2,-999.0,80,-99.99,,,0.00,Acu-Link.com,2013-02-10 12:36:00,
2013-02-10 07:52:00,23.4,17.9,30.13,East,90,1.1,-999.0,79,-99.99,,,0.00,Acu-Link.com,2013-02-10 12:52:00,
2013-02-10 08:07:00,23.2,17.7,30.13,NW,315,1.7,-999.0,79,-99.99,,,0.00,Acu-Link.com,2013-02-10 13:07:00,
2013-02-10 08:22:00,23.9,18.4,30.12,NE,45,3.7,-999.0,79,-99.99,,,0.00,Acu-Link.com,2013-02-10 13:22:00,
2013-02-10 08:37:00,24.6,18.7,30.13,ENE,67,2.7,-999.0,78,-99.99,,,0.00,Acu-Link.com,2013-02-10 13:37:00,
2013-02-10 08:52:00,25.3,18.8,30.13,ENE,67,3.2,-999.0,76,-99.99,,,0.00,Acu-Link.com,2013-02-10 13:52:00,
2013-02-10 09:08:00,26.8,19.3,30.11,NW,315,1.7,-999.0,73,-99.99,,,0.00,Acu-Link.com,2013-02-10 14:08:00,
2013-02-10 09:23:00,28.2,19.4,30.08,NNW,337,2.7,-999.0,69,-99.99,,,0.00,Acu-Link.com,2013-02-10 14:23:00,
2013-02-10 09:38:00,28.8,19.6,30.06,North,0,3.2,-999.0,68,-99.99,,,0.00,Acu-Link.com,2013-02-10 14:38:00,
2013-02-10 09:53:00,29.8,20.2,30.09,West,270,3.2,-999.0,67,-99.99,,,0.00,Acu-Link.com,2013-02-10 14:53:00,
2013-02-10 10:08:00,31.1,20.0,30.08,NW,315,4.7,-999.0,63,-99.99,,,0.00,Acu-Link.com,2013-02-10 15:08:00,
2013-02-10 10:24:00,33.6,19.6,30.08,NW,315,2.7,-999.0,56,-99.99,,,0.00,Acu-Link.com,2013-02-10 15:24:00,
2013-02-10 10:39:00,35.4,19.5,30.07,NNW,337,4.7,-999.0,52,-99.99,,,0.00,Acu-Link.com,2013-02-10 15:39:00,
2013-02-10 10:54:00,36.9,20.0,30.07,ESE,112,3.7,-999.0,50,-99.99,,,0.00,Acu-Link.com,2013-02-10 15:54:00,
2013-02-10 11:09:00,39.0,19.5,30.07,West,270,2.7,-999.0,45,-99.99,,,0.00,Acu-Link.com,2013-02-10 16:09:00,
2013-02-10 11:24:00,40.3,19.6,30.07,ESE,112,2.2,-999.0,43,-99.99,,,0.00,Acu-Link.com,2013-02-10 16:24:00,
2013-02-10 11:40:00,40.8,20.1,30.06,West,270,5.3,-999.0,43,-99.99,,,0.00,Acu-Link.com,2013-02-10 16:40:00,
2013-02-10 11:55:00,42.6,19.4,30.04,ENE,67,2.2,-999.0,39,-99.99,,,0.00,Acu-Link.com,2013-02-10 16:55:00,
2013-02-10 12:10:00,44.6,20.0,30.05,West,270,2.2,-999.0,37,-99.99,,,0.00,Acu-Link.com,2013-02-10 17:10:00,
2013-02-10 12:25:00,45.7,20.9,30.04,WSW,247,3.2,-999.0,37,-99.99,,,0.00,Acu-Link.com,2013-02-10 17:25:00,
2013-02-10 12:41:00,46.0,20.6,30.01,NW,315,4.2,-999.0,36,-99.99,,,0.00,Acu-Link.com,2013-02-10 17:41:00,
2013-02-10 12:56:00,48.2,21.8,30.00,WNW,292,2.7,-999.0,35,-99.99,,,0.00,Acu-Link.com,2013-02-10 17:56:00,
2013-02-10 13:11:00,48.6,22.2,29.98,ENE,67,5.3,-999.0,35,-99.99,,,0.00,Acu-Link.com,2013-02-10 18:11:00,
2013-02-10 13:26:00,47.7,23.4,29.97,ENE,67,1.7,-999.0,38,-99.99,,,0.00,Acu-Link.com,2013-02-10 18:26:00,
2013-02-10 13:42:00,46.0,22.4,29.96,ENE,67,1.1,-999.0,39,-99.99,,,0.00,Acu-Link.com,2013-02-10 18:42:00,
2013-02-10 13:57:00,45.5,22.0,29.96,NNW,337,1.1,-999.0,39,-99.99,,,0.00,Acu-Link.com,2013-02-10 18:57:00,
2013-02-10 14:12:00,45.3,23.0,29.96,West,270,0.0,-999.0,41,-99.99,,,0.00,Acu-Link.com,2013-02-10 19:12:00,
2013-02-10 14:27:00,45.0,22.7,29.96,NW,315,0.0,-999.0,41,-99.99,,,0.00,Acu-Link.com,2013-02-10 19:27:00,
2013-02-10 14:43:00,44.4,22.8,29.94,SSW,202,0.0,-999.0,42,-99.99,,,0.00,Acu-Link.com,2013-02-10 19:43:00,
2013-02-10 14:58:00,44.4,22.8,29.94,West,270,2.2,-999.0,42,-99.99,,,0.00,Acu-Link.com,2013-02-10 19:58:00,
2013-02-10 15:13:00,45.1,23.4,29.92,NE,45,4.2,-999.0,42,-99.99,,,0.00,Acu-Link.com,2013-02-10 20:13:00,
2013-02-10 15:28:00,45.0,23.9,29.92,ENE,67,0.0,-999.0,43,-99.99,,,0.00,Acu-Link.com,2013-02-10 20:28:00,
2013-02-10 15:43:00,44.4,23.9,29.92,WNW,292,2.7,-999.0,44,-99.99,,,0.00,Acu-Link.com,2013-02-10 20:43:00,
2013-02-10 15:59:00,44.2,23.7,29.92,WNW,292,2.7,-999.0,44,-99.99,,,0.00,Acu-Link.com,2013-02-10 20:59:00,
2013-02-10 16:14:00,43.7,24.3,29.91,NW,315,2.2,-999.0,46,-99.99,,,0.00,Acu-Link.com,2013-02-10 21:14:00,
2013-02-10 16:29:00,42.8,24.5,29.90,NW,315,1.7,-999.0,48,-99.99,,,0.00,Acu-Link.com,2013-02-10 21:29:00,
2013-02-10 16:44:00,43.0,24.2,29.90,NNW,337,2.2,-999.0,47,-99.99,,,0.00,Acu-Link.com,2013-02-10 21:44:00,
2013-02-10 16:59:00,42.3,24.0,29.91,ENE,67,0.0,-999.0,48,-99.99,,,0.00,Acu-Link.com,2013-02-10 21:59:00,
2013-02-10 17:15:00,42.3,24.0,29.88,NNW,337,1.7,-999.0,48,-99.99,,,0.00,Acu-Link.com,2013-02-10 22:15:00,
2013-02-10 17:30:00,41.4,24.6,29.89,ESE,112,0.0,-999.0,51,-99.99,,,0.00,Acu-Link.com,2013-02-10 22:30:00,
2013-02-10 17:45:00,41.5,24.3,29.88,ENE,67,1.7,-999.0,50,-99.99,,,0.00,Acu-Link.com,2013-02-10 22:45:00,
2013-02-10 18:00:00,41.5,24.3,29.87,NNW,337,2.2,-999.0,50,-99.99,,,0.00,Acu-Link.com,2013-02-10 23:00:00,
2013-02-10 18:15:00,41.2,24.0,29.86,NNE,22,4.7,-999.0,50,-99.99,,,0.00,Acu-Link.com,2013-02-10 23:15:00,
2013-02-10 18:31:00,41.4,24.6,29.87,NE,45,2.7,-999.0,51,-99.99,,,0.00,Acu-Link.com,2013-02-10 23:31:00,
2013-02-10 18:46:00,41.4,24.6,29.84,NE,45,4.2,-999.0,51,-99.99,,,0.00,Acu-Link.com,2013-02-10 23:46:00,
2013-02-10 19:01:00,41.7,24.9,29.82,North,0,4.7,-999.0,51,-99.99,,,0.00,Acu-Link.com,2013-02-11 00:01:00,
2013-02-10 19:16:00,41.5,24.7,29.84,WNW,292,2.2,-999.0,51,-99.99,,,0.00,Acu-Link.com,2013-02-11 00:16:00,
2013-02-10 19:32:00,41.7,25.4,29.85,WNW,292,3.2,-999.0,52,-99.99,,,0.00,Acu-Link.com,2013-02-11 00:32:00,
2013-02-10 19:47:00,42.4,25.6,29.83,SSW,202,1.7,-999.0,51,-99.99,,,0.00,Acu-Link.com,2013-02-11 00:47:00,
2013-02-10 20:02:00,42.3,25.5,29.80,WNW,292,4.2,-999.0,51,-99.99,,,0.00,Acu-Link.com,2013-02-11 01:02:00,
2013-02-10 20:17:00,42.3,25.0,29.81,WNW,292,2.7,-999.0,50,-99.99,,,0.00,Acu-Link.com,2013-02-11 01:17:00,
2013-02-10 20:32:00,42.6,25.3,29.80,NNW,337,3.2,-999.0,50,-99.99,,,0.00,Acu-Link.com,2013-02-11 01:32:00,
2013-02-10 20:48:00,43.0,25.6,29.79,ENE,67,1.7,-999.0,50,-99.99,,,0.00,Acu-Link.com,2013-02-11 01:48:00,
2013-02-10 21:03:00,43.3,25.9,29.79,WNW,292,3.7,-999.0,50,-99.99,,,0.00,Acu-Link.com,2013-02-11 02:03:00,
2013-02-10 21:18:00,43.3,25.9,29.79,NW,315,3.7,-999.0,50,-99.99,,,0.00,Acu-Link.com,2013-02-11 02:18:00,
2013-02-10 21:33:00,43.5,26.1,29.77,NE,45,4.7,-999.0,50,-99.99,,,0.00,Acu-Link.com,2013-02-11 02:33:00,
2013-02-10 21:48:00,43.5,26.1,29.76,West,270,4.2,-999.0,50,-99.99,,,0.00,Acu-Link.com,2013-02-11 02:48:00,
2013-02-10 22:04:00,43.3,26.4,29.77,West,270,2.2,-999.0,51,-99.99,,,0.00,Acu-Link.com,2013-02-11 03:04:00,
2013-02-10 22:19:00,43.3,26.4,29.77,WSW,247,5.3,-999.0,51,-99.99,,,0.00,Acu-Link.com,2013-02-11 03:19:00,
2013-02-10 22:34:00,44.1,27.6,29.76,West,270,3.7,-999.0,52,-99.99,,,0.00,Acu-Link.com,2013-02-11 03:34:00,
2013-02-10 22:49:00,44.8,29.6,29.76,NNW,337,4.7,-999.0,55,-99.99,,,0.00,Acu-Link.com,2013-02-11 03:49:00,
2013-02-10 23:04:00,44.4,31.4,29.74,West,270,4.7,-999.0,60,-99.99,,,0.00,Acu-Link.com,2013-02-11 04:04:00,
2013-02-10 23:20:00,44.2,32.0,29.72,NW,315,3.2,-999.0,62,-99.99,,,0.00,Acu-Link.com,2013-02-11 04:20:00,
2013-02-10 23:35:00,43.9,33.7,29.73,NW,315,2.7,-999.0,67,-99.99,,,0.00,Acu-Link.com,2013-02-11 04:35:00,
2013-02-10 23:50:00,43.3,35.2,29.70,West,270,6.3,-999.0,73,-99.99,,,0.00,Acu-Link.com,2013-02-11 04:50:00,